Time;durP1;ratioP1;P1;durP2;ratioP2;P2;SDS_P1;SDS_P2;PMS_P1;PMS_P2;Temp;Humidity;BMP_temperature;BMP_pressure;BME280_temperature;BME280_humidity;BME280_pressure;Samples;Min_cycle;Max_cycle;Signal;HPM_P1;HPM_P2
2022/05/10 00:01:17;;;;;;;;;;;22.80;45.60;;;;;;467557;254;1196;-39
2022/05/10 00:03:18;;;;;;;;;;;22.80;45.60;;;;;;467657;254;1211;-39
2022/05/10 00:05:20;;;;;;;;;;;22.80;45.60;;;;;;467666;254;1248;-39
2022/05/10 00:07:23;;;;;;;;;;;22.80;45.60;;;;;;467934;254;1315;-39
2022/05/10 00:09:27;;;;;;;;;;;22.80;45.60;;;;;;467743;255;2117;-39
2022/05/10 00:11:24;;;;;;;;;;;22.80;45.60;;;;;;467764;255;2274;-39
2022/05/10 00:13:25;;;;;;;;;;;22.80;45.50;;;;;;467794;254;1192;-39
2022/05/10 00:15:27;;;;;;;;;;;22.80;45.50;;;;;;467939;254;1233;-39
2022/05/10 00:17:28;;;;;;;;;;;22.80;45.60;;;;;;467623;254;2212;-39
2022/05/10 00:19:30;;;;;;;;;;;22.80;45.60;;;;;;467643;254;1209;-39
2022/05/10 00:21:30;;;;;;;;;;;22.80;45.50;;;;;;467556;255;2296;-39
2022/05/10 00:23:32;;;;;;;;;;;22.90;45.50;;;;;;467657;254;1210;-39
2022/05/10 00:25:33;;;;;;;;;;;22.80;45.50;;;;;;467896;254;1267;-39
2022/05/10 00:27:34;;;;;;;;;;;22.90;45.50;;;;;;467614;254;1221;-39
2022/05/10 00:29:36;;;;;;;;;;;22.80;45.60;;;;;;467852;254;1371;-39
2022/05/10 00:31:37;;;;;;;;;;;22.80;45.50;;;;;;467768;254;1232;-39
2022/05/10 00:33:38;;;;;;;;;;;22.80;45.50;;;;;;467746;254;1205;-39
2022/05/10 00:35:40;;;;;;;;;;;22.80;45.50;;;;;;467533;254;2204;-39
2022/05/10 00:37:41;;;;;;;;;;;22.90;45.50;;;;;;467631;254;1254;-39
2022/05/10 00:39:42;;;;;;;;;;;22.80;45.50;;;;;;467684;253;1311;-39
2022/05/10 00:41:44;;;;;;;;;;;22.80;45.50;;;;;;467782;254;1235;-39
2022/05/10 00:43:45;;;;;;;;;;;22.90;45.60;;;;;;467686;254;1171;-39
2022/05/10 00:45:46;;;;;;;;;;;22.90;45.50;;;;;;467614;254;1152;-39
2022/05/10 00:47:48;;;;;;;;;;;22.80;45.50;;;;;;467636;254;1213;-39
2022/05/10 00:49:49;;;;;;;;;;;22.80;45.50;;;;;;467856;254;1736;-39
2022/05/10 00:51:50;;;;;;;;;;;22.80;45.50;;;;;;467669;254;1210;-39
2022/05/10 00:53:52;;;;;;;;;;;22.90;45.50;;;;;;467599;254;1325;-39
2022/05/10 00:55:53;;;;;;;;;;;22.80;45.50;;;;;;467849;254;2154;-39
2022/05/10 00:57:54;;;;;;;;;;;22.80;45.60;;;;;;467881;254;1231;-39
2022/05/10 00:59:55;;;;;;;;;;;22.80;45.50;;;;;;467673;254;1214;-39
2022/05/10 01:01:57;;;;;;;;;;;22.90;45.50;;;;;;467832;254;1261;-39
2022/05/10 01:03:58;;;;;;;;;;;22.90;45.50;;;;;;467644;254;1139;-39
2022/05/10 01:05:59;;;;;;;;;;;22.80;45.50;;;;;;467605;254;1491;-39
2022/05/10 01:08:01;;;;;;;;;;;22.80;45.60;;;;;;467868;254;1231;-39
2022/05/10 01:10:02;;;;;;;;;;;22.80;45.60;;;;;;467782;254;1108;-39
2022/05/10 01:12:03;;;;;;;;;;;22.80;45.50;;;;;;467559;254;1258;-39
2022/05/10 01:14:05;;;;;;;;;;;22.80;45.60;;;;;;467619;254;1082;-39
2022/05/10 01:16:06;;;;;;;;;;;22.80;45.50;;;;;;467580;254;2196;-39
2022/05/10 01:18:07;;;;;;;;;;;22.80;45.60;;;;;;467580;254;1110;-39
2022/05/10 01:20:09;;;;;;;;;;;22.80;45.60;;;;;;467649;254;1172;-39
2022/05/10 01:22:10;;;;;;;;;;;22.80;45.50;;;;;;468089;254;1152;-39
2022/05/10 01:24:12;;;;;;;;;;;22.80;45.50;;;;;;467693;254;1249;-39
2022/05/10 01:26:13;;;;;;;;;;;22.80;45.60;;;;;;467945;254;1378;-39
2022/05/10 01:28:14;;;;;;;;;;;22.80;45.60;;;;;;467779;254;1373;-39
2022/05/10 01:30:16;;;;;;;;;;;22.80;45.50;;;;;;467734;254;1239;-39
2022/05/10 01:34:36;;;;;;;;;;;22.90;45.50;;;;;;467760;255;1288;-38
2022/05/10 01:36:38;;;;;;;;;;;22.80;45.50;;;;;;467647;254;2193;-39
2022/05/10 01:38:39;;;;;;;;;;;22.80;45.50;;;;;;467615;254;1300;-39
2022/05/10 01:40:40;;;;;;;;;;;22.80;45.50;;;;;;467646;254;1288;-39
2022/05/10 01:42:42;;;;;;;;;;;22.80;45.50;;;;;;467743;254;1556;-39
2022/05/10 01:44:43;;;;;;;;;;;22.80;45.50;;;;;;467610;254;1327;-39
2022/05/10 01:46:44;;;;;;;;;;;22.80;45.50;;;;;;467981;254;1249;-39
2022/05/10 01:48:45;;;;;;;;;;;22.80;45.50;;;;;;467774;254;1259;-39
2022/05/10 01:50:47;;;;;;;;;;;22.80;45.50;;;;;;467522;254;1290;-39
2022/05/10 01:52:48;;;;;;;;;;;22.90;45.50;;;;;;467755;254;1218;-39
2022/05/10 01:54:50;;;;;;;;;;;22.90;45.50;;;;;;467803;254;1247;-39
2022/05/10 01:56:51;;;;;;;;;;;22.90;45.50;;;;;;467553;255;2445;-39
2022/05/10 01:58:52;;;;;;;;;;;22.90;45.50;;;;;;467596;254;1186;-39
2022/05/10 02:00:55;;;;;;;;;;;22.80;45.50;;;;;;467832;254;1281;-39
2022/05/10 02:02:55;;;;;;;;;;;22.90;45.40;;;;;;467499;255;1528;-39
2022/05/10 02:04:56;;;;;;;;;;;22.80;45.40;;;;;;467727;254;1437;-39
2022/05/10 02:06:57;;;;;;;;;;;22.90;45.40;;;;;;467666;254;1198;-39
2022/05/10 02:08:59;;;;;;;;;;;22.90;45.40;;;;;;467852;254;1215;-39
2022/05/10 02:11:00;;;;;;;;;;;22.90;45.40;;;;;;468002;254;1273;-39
2022/05/10 02:13:01;;;;;;;;;;;22.90;45.50;;;;;;467975;254;1194;-39
2022/05/10 02:15:03;;;;;;;;;;;22.80;45.40;;;;;;467930;254;1279;-39
2022/05/10 02:17:04;;;;;;;;;;;22.90;45.50;;;;;;467965;254;2137;-39
2022/05/10 02:19:05;;;;;;;;;;;22.90;45.40;;;;;;467703;254;1220;-39
2022/05/10 02:21:06;;;;;;;;;;;22.80;45.40;;;;;;467901;253;1318;-39
2022/05/10 02:23:08;;;;;;;;;;;22.80;45.50;;;;;;467698;254;1215;-39
2022/05/10 02:25:09;;;;;;;;;;;22.80;45.50;;;;;;467696;254;1282;-39
2022/05/10 02:27:10;;;;;;;;;;;22.80;45.40;;;;;;467872;254;1235;-39
2022/05/10 02:29:12;;;;;;;;;;;22.90;45.50;;;;;;467783;254;1232;-39
2022/05/10 02:31:13;;;;;;;;;;;22.90;45.50;;;;;;468114;254;2076;-39
2022/05/10 02:33:14;;;;;;;;;;;22.90;45.40;;;;;;468121;254;1272;-39
2022/05/10 02:35:16;;;;;;;;;;;22.80;45.40;;;;;;467988;254;1219;-39
2022/05/10 02:37:17;;;;;;;;;;;22.80;45.50;;;;;;467752;254;2213;-39
2022/05/10 02:39:18;;;;;;;;;;;22.80;45.50;;;;;;468130;254;1239;-39
2022/05/10 02:41:20;;;;;;;;;;;22.80;45.50;;;;;;467973;254;1358;-39
2022/05/10 02:43:21;;;;;;;;;;;22.80;45.60;;;;;;468166;254;1082;-39
2022/05/10 02:45:22;;;;;;;;;;;22.90;45.50;;;;;;468179;254;1075;-39
2022/05/10 02:47:24;;;;;;;;;;;22.90;45.40;;;;;;467700;254;1094;-39
2022/05/10 02:49:25;;;;;;;;;;;22.90;45.40;;;;;;467752;254;1048;-39
2022/05/10 02:51:26;;;;;;;;;;;22.80;45.50;;;;;;467764;254;1296;-39
2022/05/10 02:53:28;;;;;;;;;;;22.80;45.60;;;;;;467697;254;1275;-39
2022/05/10 02:55:29;;;;;;;;;;;22.80;45.50;;;;;;467935;254;1077;-39
2022/05/10 02:57:30;;;;;;;;;;;22.80;45.50;;;;;;468033;254;2192;-39
2022/05/10 02:59:33;;;;;;;;;;;22.80;45.50;;;;;;468032;254;1123;-39
2022/05/10 03:01:33;;;;;;;;;;;22.80;45.40;;;;;;467595;255;1772;-39
2022/05/10 03:03:34;;;;;;;;;;;22.80;45.40;;;;;;467558;254;1199;-39
2022/05/10 03:05:35;;;;;;;;;;;22.80;45.40;;;;;;467633;254;1196;-39
2022/05/10 03:07:38;;;;;;;;;;;22.80;45.40;;;;;;467801;254;1234;-39
2022/05/10 03:09:39;;;;;;;;;;;22.90;45.50;;;;;;467680;254;2454;-39
2022/05/10 03:11:40;;;;;;;;;;;22.80;45.50;;;;;;467756;254;1289;-39
2022/05/10 03:13:41;;;;;;;;;;;22.90;45.40;;;;;;467633;254;1303;-39
2022/05/10 03:15:43;;;;;;;;;;;22.80;45.40;;;;;;467632;254;1393;-39
2022/05/10 03:17:44;;;;;;;;;;;22.80;45.50;;;;;;467882;254;2145;-39
2022/05/10 03:19:45;;;;;;;;;;;22.90;45.50;;;;;;467643;254;1290;-39
2022/05/10 03:21:47;;;;;;;;;;;22.80;45.40;;;;;;467831;254;1247;-39
2022/05/10 03:23:48;;;;;;;;;;;22.80;45.50;;;;;;467715;254;1203;-39
2022/05/10 03:25:49;;;;;;;;;;;22.80;45.50;;;;;;467962;254;1307;-39
2022/05/10 03:27:50;;;;;;;;;;;22.90;45.60;;;;;;467869;254;1325;-39
2022/05/10 03:29:52;;;;;;;;;;;22.80;45.50;;;;;;467696;254;1311;-39
2022/05/10 03:31:53;;;;;;;;;;;22.90;45.40;;;;;;468075;254;1286;-39
2022/05/10 03:36:15;;;;;;;;;;;22.90;45.50;;;;;;467610;255;1267;-39
2022/05/10 03:38:16;;;;;;;;;;;22.90;45.40;;;;;;467609;254;2269;-39
2022/05/10 03:40:18;;;;;;;;;;;22.90;45.50;;;;;;468030;254;1341;-39
2022/05/10 03:42:19;;;;;;;;;;;22.80;45.40;;;;;;467603;254;1247;-39
2022/05/10 03:44:20;;;;;;;;;;;22.90;45.50;;;;;;467670;254;1294;-39
2022/05/10 03:46:22;;;;;;;;;;;22.90;45.40;;;;;;467638;254;1651;-39
2022/05/10 03:48:23;;;;;;;;;;;22.90;45.40;;;;;;467709;254;1274;-39
2022/05/10 03:50:24;;;;;;;;;;;22.90;45.40;;;;;;467672;254;1249;-39
2022/05/10 03:52:26;;;;;;;;;;;22.90;45.30;;;;;;467690;254;1282;-39
2022/05/10 03:54:27;;;;;;;;;;;22.90;45.50;;;;;;467974;254;1556;-39
2022/05/10 03:56:29;;;;;;;;;;;22.90;45.40;;;;;;467808;254;1133;-39
2022/05/10 03:58:30;;;;;;;;;;;22.90;45.40;;;;;;467697;254;2134;-39
2022/05/10 04:00:31;;;;;;;;;;;22.90;45.40;;;;;;467848;254;1208;-39
2022/05/10 04:02:32;;;;;;;;;;;22.80;45.40;;;;;;467678;254;1316;-39
2022/05/10 04:04:34;;;;;;;;;;;22.80;45.40;;;;;;467798;254;1201;-39
2022/05/10 04:06:35;;;;;;;;;;;22.90;45.40;;;;;;467704;254;1398;-39
2022/05/10 04:08:36;;;;;;;;;;;22.90;45.40;;;;;;467711;254;1213;-39
2022/05/10 04:10:37;;;;;;;;;;;22.90;45.40;;;;;;467756;254;1178;-39
2022/05/10 04:12:39;;;;;;;;;;;22.90;45.50;;;;;;467660;254;1230;-39
2022/05/10 04:14:40;;;;;;;;;;;22.80;45.40;;;;;;467629;254;1347;-39
2022/05/10 04:16:41;;;;;;;;;;;22.80;45.30;;;;;;467543;254;1254;-39
2022/05/10 04:18:43;;;;;;;;;;;22.90;45.40;;;;;;467594;254;2272;-39
2022/05/10 04:20:44;;;;;;;;;;;22.80;45.40;;;;;;467718;254;1579;-39
2022/05/10 04:22:45;;;;;;;;;;;22.80;45.50;;;;;;467599;254;1231;-39
2022/05/10 04:24:47;;;;;;;;;;;22.80;45.50;;;;;;467852;254;1231;-39
2022/05/10 04:26:48;;;;;;;;;;;22.90;45.40;;;;;;467664;254;1198;-39
2022/05/10 04:28:49;;;;;;;;;;;22.90;45.50;;;;;;467684;254;1275;-39
2022/05/10 04:30:51;;;;;;;;;;;22.80;45.40;;;;;;467671;254;1308;-39
2022/05/10 04:32:52;;;;;;;;;;;22.90;45.40;;;;;;467589;254;1323;-39
2022/05/10 04:34:53;;;;;;;;;;;22.90;45.40;;;;;;467627;254;1122;-39
2022/05/10 04:36:55;;;;;;;;;;;22.80;45.50;;;;;;467800;254;1049;-39
2022/05/10 04:38:56;;;;;;;;;;;22.80;45.50;;;;;;467806;254;2253;-39
2022/05/10 04:43:16;;;;;;;;;;;22.80;45.50;;;;;;467576;255;1340;-39
2022/05/10 04:45:18;;;;;;;;;;;22.80;45.50;;;;;;467587;254;1202;-39
2022/05/10 04:47:19;;;;;;;;;;;22.80;45.50;;;;;;467556;254;1230;-39
2022/05/10 04:49:20;;;;;;;;;;;22.80;45.50;;;;;;467646;254;1484;-39
2022/05/10 04:51:22;;;;;;;;;;;22.90;45.50;;;;;;467386;254;1555;-39
2022/05/10 04:53:23;;;;;;;;;;;22.80;45.50;;;;;;467418;254;1283;-39
2022/05/10 04:55:24;;;;;;;;;;;22.90;45.40;;;;;;467548;254;1267;-39
2022/05/10 04:57:26;;;;;;;;;;;22.90;45.40;;;;;;467567;254;2134;-39
2022/05/10 04:59:27;;;;;;;;;;;22.80;45.40;;;;;;467707;254;1357;-39
2022/05/10 05:01:29;;;;;;;;;;;22.80;45.40;;;;;;467675;254;1205;-39
2022/05/10 05:03:29;;;;;;;;;;;22.80;45.40;;;;;;467597;254;2045;-39
2022/05/10 05:05:31;;;;;;;;;;;22.90;45.40;;;;;;467369;254;1270;-39
2022/05/10 05:07:32;;;;;;;;;;;22.90;45.40;;;;;;467548;254;1398;-39
2022/05/10 05:09:34;;;;;;;;;;;22.80;45.30;;;;;;467379;254;1599;-39
2022/05/10 05:11:35;;;;;;;;;;;22.90;45.40;;;;;;467272;254;1589;-39
2022/05/10 05:13:37;;;;;;;;;;;22.90;45.40;;;;;;467426;254;1204;-39
2022/05/10 05:15:38;;;;;;;;;;;22.90;45.30;;;;;;467362;254;1253;-39
2022/05/10 05:17:39;;;;;;;;;;;22.90;45.40;;;;;;467486;254;2208;-39
2022/05/10 05:19:41;;;;;;;;;;;22.90;45.30;;;;;;467149;254;1303;-39
2022/05/10 05:21:43;;;;;;;;;;;22.90;45.30;;;;;;467428;254;1127;-39
2022/05/10 05:23:44;;;;;;;;;;;22.90;45.30;;;;;;467209;255;1253;-39
2022/05/10 05:25:45;;;;;;;;;;;22.90;45.30;;;;;;467471;254;1247;-39
2022/05/10 05:27:46;;;;;;;;;;;22.90;45.30;;;;;;467498;254;1226;-39
2022/05/10 05:29:48;;;;;;;;;;;22.90;45.40;;;;;;467375;254;1519;-39
2022/05/10 05:31:49;;;;;;;;;;;22.90;45.30;;;;;;467234;254;1234;-39
2022/05/10 05:33:50;;;;;;;;;;;22.90;45.30;;;;;;467230;254;1176;-39
2022/05/10 05:35:51;;;;;;;;;;;22.90;45.40;;;;;;467140;254;1601;-39
2022/05/10 05:37:54;;;;;;;;;;;22.90;45.30;;;;;;467230;254;2221;-39
2022/05/10 05:39:54;;;;;;;;;;;22.90;45.40;;;;;;467238;255;2177;-39
2022/05/10 05:41:55;;;;;;;;;;;22.90;45.40;;;;;;467156;254;1252;-39
2022/05/10 05:43:57;;;;;;;;;;;22.90;45.30;;;;;;467218;254;1215;-39
2022/05/10 05:45:58;;;;;;;;;;;22.90;45.40;;;;;;467239;254;1320;-39
2022/05/10 05:47:59;;;;;;;;;;;22.90;45.40;;;;;;467263;254;1269;-39
2022/05/10 05:50:01;;;;;;;;;;;22.90;45.40;;;;;;467342;254;1206;-39
2022/05/10 05:52:02;;;;;;;;;;;22.80;45.40;;;;;;467189;254;1220;-39
2022/05/10 05:54:08;;;;;;;;;;;22.90;45.40;;;;;;467211;254;1206;-39
2022/05/10 05:56:06;;;;;;;;;;;22.80;45.50;;;;;;466910;255;2372;-39
2022/05/10 05:58:06;;;;;;;;;;;22.80;45.40;;;;;;467205;254;2454;-39
2022/05/10 06:00:08;;;;;;;;;;;22.80;45.40;;;;;;467225;254;1221;-39
2022/05/10 06:02:09;;;;;;;;;;;22.90;45.40;;;;;;467245;254;2076;-39
2022/05/10 06:04:10;;;;;;;;;;;22.90;45.40;;;;;;467188;254;1270;-39
2022/05/10 06:06:12;;;;;;;;;;;22.80;45.40;;;;;;467058;254;1227;-39
2022/05/10 06:08:14;;;;;;;;;;;22.90;45.30;;;;;;467244;254;1281;-39
2022/05/10 06:10:14;;;;;;;;;;;22.90;45.30;;;;;;467152;254;2097;-39
2022/05/10 06:12:16;;;;;;;;;;;22.90;45.30;;;;;;467223;254;1224;-39
2022/05/10 06:14:17;;;;;;;;;;;22.90;45.30;;;;;;467211;254;1224;-39
2022/05/10 06:16:18;;;;;;;;;;;22.90;45.20;;;;;;467175;254;1339;-39
2022/05/10 06:18:20;;;;;;;;;;;22.90;45.20;;;;;;467152;254;2205;-39
2022/05/10 06:20:21;;;;;;;;;;;22.90;45.20;;;;;;467121;254;1131;-39
2022/05/10 06:22:22;;;;;;;;;;;22.90;45.30;;;;;;467175;254;1553;-39
2022/05/10 06:24:24;;;;;;;;;;;22.90;45.40;;;;;;467268;254;1235;-39
2022/05/10 06:26:25;;;;;;;;;;;22.90;45.40;;;;;;467166;254;1081;-39
2022/05/10 06:28:26;;;;;;;;;;;22.90;45.30;;;;;;467044;254;1091;-39
2022/05/10 06:30:28;;;;;;;;;;;22.90;45.30;;;;;;467037;254;1386;-39
2022/05/10 06:32:29;;;;;;;;;;;22.90;45.20;;;;;;467186;254;1163;-39
2022/05/10 06:34:30;;;;;;;;;;;22.90;45.20;;;;;;467014;254;1282;-39
2022/05/10 06:36:32;;;;;;;;;;;22.90;45.30;;;;;;467092;254;1168;-39
2022/05/10 06:38:34;;;;;;;;;;;23.00;45.20;;;;;;467240;254;2130;-39
2022/05/10 06:40:34;;;;;;;;;;;22.90;45.20;;;;;;467037;255;1879;-39
2022/05/10 06:42:36;;;;;;;;;;;22.90;45.20;;;;;;467078;254;1241;-39
2022/05/10 06:44:37;;;;;;;;;;;22.90;45.30;;;;;;467160;254;1241;-39
2022/05/10 06:46:38;;;;;;;;;;;22.90;45.30;;;;;;466972;254;1280;-39
2022/05/10 06:48:40;;;;;;;;;;;22.90;45.30;;;;;;466893;254;1272;-39
2022/05/10 06:50:42;;;;;;;;;;;22.90;45.30;;;;;;467203;254;1143;-39
2022/05/10 06:52:43;;;;;;;;;;;23.00;45.30;;;;;;467231;254;2096;-37
2022/05/10 06:54:44;;;;;;;;;;;22.90;45.30;;;;;;467134;254;1214;-39
2022/05/10 06:56:45;;;;;;;;;;;22.90;45.40;;;;;;467010;254;1208;-38
2022/05/10 06:58:46;;;;;;;;;;;22.90;45.40;;;;;;467305;253;2200;-39
2022/05/10 07:00:48;;;;;;;;;;;23.00;45.40;;;;;;466874;254;1214;-39
2022/05/10 07:02:49;;;;;;;;;;;22.90;45.40;;;;;;467106;254;1229;-39
2022/05/10 07:04:51;;;;;;;;;;;22.90;45.40;;;;;;466920;254;1201;-39
2022/05/10 07:06:52;;;;;;;;;;;22.90;45.30;;;;;;466896;254;1268;-39
2022/05/10 07:08:53;;;;;;;;;;;22.90;45.40;;;;;;466701;254;1614;-39
2022/05/10 07:10:55;;;;;;;;;;;22.90;45.40;;;;;;466794;254;1199;-39
2022/05/10 07:12:58;;;;;;;;;;;22.90;45.40;;;;;;466676;254;1264;-39
2022/05/10 07:14:58;;;;;;;;;;;22.90;45.30;;;;;;466630;254;1855;-39
2022/05/10 07:16:59;;;;;;;;;;;22.90;45.40;;;;;;466641;254;1646;-39
2022/05/10 07:19:00;;;;;;;;;;;22.90;45.30;;;;;;466760;254;2130;-39
2022/05/10 07:21:02;;;;;;;;;;;23.00;45.30;;;;;;466710;254;1345;-38
2022/05/10 07:23:03;;;;;;;;;;;23.00;45.40;;;;;;467037;254;1297;-39
2022/05/10 07:25:04;;;;;;;;;;;22.90;45.40;;;;;;466735;254;1361;-39
2022/05/10 07:27:06;;;;;;;;;;;22.90;45.40;;;;;;466742;254;1429;-39
2022/05/10 07:29:07;;;;;;;;;;;22.90;45.40;;;;;;466969;254;1100;-39
2022/05/10 07:31:08;;;;;;;;;;;22.90;45.40;;;;;;466984;254;1209;-39
2022/05/10 07:33:09;;;;;;;;;;;22.90;45.40;;;;;;467348;254;1175;-39
2022/05/10 07:35:11;;;;;;;;;;;22.90;45.40;;;;;;467431;254;1109;-39
2022/05/10 07:37:12;;;;;;;;;;;22.90;45.40;;;;;;466945;254;1263;-39
2022/05/10 07:39:14;;;;;;;;;;;22.90;45.40;;;;;;466606;254;2172;-39
2022/05/10 07:41:18;;;;;;;;;;;23.00;45.40;;;;;;466972;254;1237;-39
2022/05/10 07:43:17;;;;;;;;;;;23.00;45.40;;;;;;467438;255;2281;-39
2022/05/10 07:45:18;;;;;;;;;;;23.00;45.30;;;;;;467208;254;1449;-39
2022/05/10 07:47:19;;;;;;;;;;;23.00;45.40;;;;;;466977;254;1140;-38
2022/05/10 07:49:20;;;;;;;;;;;23.00;45.40;;;;;;467176;254;1238;-39
2022/05/10 07:51:22;;;;;;;;;;;23.00;45.30;;;;;;466885;254;1127;-39
2022/05/10 07:53:23;;;;;;;;;;;23.00;45.40;;;;;;467381;254;1171;-39
2022/05/10 07:55:24;;;;;;;;;;;23.00;45.40;;;;;;467078;254;1191;-39
2022/05/10 07:57:26;;;;;;;;;;;22.90;45.40;;;;;;467428;254;1175;-38
2022/05/10 07:59:28;;;;;;;;;;;23.00;45.30;;;;;;466869;254;2200;-39
2022/05/10 08:01:28;;;;;;;;;;;23.00;45.30;;;;;;466813;255;2224;-39
2022/05/10 08:03:30;;;;;;;;;;;23.00;45.40;;;;;;466916;254;1325;-39
2022/05/10 08:05:32;;;;;;;;;;;23.00;45.40;;;;;;466850;254;1302;-39
2022/05/10 08:07:33;;;;;;;;;;;23.00;45.30;;;;;;466645;254;1186;-39
2022/05/10 08:09:34;;;;;;;;;;;23.00;45.30;;;;;;466527;254;1355;-39
2022/05/10 08:11:36;;;;;;;;;;;23.00;45.40;;;;;;466646;254;1284;-39
2022/05/10 08:13:37;;;;;;;;;;;23.00;45.40;;;;;;466839;254;1272;-39
2022/05/10 08:15:39;;;;;;;;;;;23.00;45.30;;;;;;466858;254;1562;-39
2022/05/10 08:17:40;;;;;;;;;;;23.00;45.40;;;;;;466574;254;1376;-39
2022/05/10 08:19:41;;;;;;;;;;;23.00;45.40;;;;;;466666;255;2125;-39
2022/05/10 08:21:43;;;;;;;;;;;23.00;45.40;;;;;;466749;254;1284;-39
2022/05/10 08:23:47;;;;;;;;;;;23.00;45.40;;;;;;466821;255;1202;-39
2022/05/10 08:25:46;;;;;;;;;;;23.00;45.40;;;;;;466710;255;2086;-39
2022/05/10 08:27:47;;;;;;;;;;;22.90;45.50;;;;;;466739;254;1284;-39
2022/05/10 08:29:48;;;;;;;;;;;22.90;45.50;;;;;;466771;254;1173;-39
2022/05/10 08:31:50;;;;;;;;;;;22.90;45.40;;;;;;466890;254;1232;-39
2022/05/10 08:33:51;;;;;;;;;;;22.90;45.50;;;;;;466786;254;1215;-39
2022/05/10 08:35:52;;;;;;;;;;;22.90;45.50;;;;;;466873;254;1276;-39
2022/05/10 08:37:54;;;;;;;;;;;22.90;45.50;;;;;;466731;254;1236;-39
2022/05/10 08:39:55;;;;;;;;;;;22.90;45.50;;;;;;466566;254;2145;-39
2022/05/10 08:41:56;;;;;;;;;;;22.90;45.50;;;;;;466645;254;1239;-39
2022/05/10 08:43:58;;;;;;;;;;;22.90;45.50;;;;;;466688;254;1247;-39
2022/05/10 08:45:59;;;;;;;;;;;22.90;45.50;;;;;;466726;254;1213;-39
2022/05/10 08:48:00;;;;;;;;;;;22.90;45.40;;;;;;466775;254;1136;-39
2022/05/10 08:50:01;;;;;;;;;;;22.90;45.50;;;;;;466659;254;1309;-39
2022/05/10 08:52:03;;;;;;;;;;;23.00;45.50;;;;;;466862;254;1317;-39
2022/05/10 08:54:04;;;;;;;;;;;23.00;45.40;;;;;;467363;254;1085;-39
2022/05/10 08:56:05;;;;;;;;;;;23.00;45.40;;;;;;467264;254;1118;-39
2022/05/10 08:58:07;;;;;;;;;;;23.00;45.40;;;;;;466817;254;1114;-39
2022/05/10 09:00:08;;;;;;;;;;;23.00;45.40;;;;;;466825;254;2195;-39
2022/05/10 09:02:09;;;;;;;;;;;22.90;45.40;;;;;;467030;254;1236;-39
2022/05/10 09:04:11;;;;;;;;;;;22.90;45.50;;;;;;467080;255;1098;-39
2022/05/10 09:06:12;;;;;;;;;;;23.00;45.30;;;;;;467458;254;1287;-39
2022/05/10 09:08:13;;;;;;;;;;;23.00;45.40;;;;;;467578;254;1116;-39
2022/05/10 09:10:15;;;;;;;;;;;23.00;45.30;;;;;;467553;254;1220;-39
2022/05/10 09:12:16;;;;;;;;;;;23.00;45.40;;;;;;467163;254;1130;-39
2022/05/10 09:14:17;;;;;;;;;;;23.00;45.40;;;;;;467582;254;1018;-39
2022/05/10 09:16:19;;;;;;;;;;;23.00;45.50;;;;;;467641;254;1173;-39
2022/05/10 09:18:20;;;;;;;;;;;22.90;45.50;;;;;;466589;254;1194;-39
2022/05/10 09:20:21;;;;;;;;;;;22.90;45.50;;;;;;466475;255;2184;-39
2022/05/10 09:22:23;;;;;;;;;;;23.00;45.50;;;;;;466743;254;1245;-38
2022/05/10 09:24:24;;;;;;;;;;;23.00;45.40;;;;;;466822;254;1238;-39
2022/05/10 09:26:26;;;;;;;;;;;23.00;45.40;;;;;;466732;254;1273;-38
2022/05/10 09:28:27;;;;;;;;;;;23.00;45.50;;;;;;466797;254;1348;-39
2022/05/10 09:30:29;;;;;;;;;;;23.00;45.40;;;;;;466845;254;1308;-39
2022/05/10 09:34:50;;;;;;;;;;;23.00;45.40;;;;;;466489;255;1430;-39
2022/05/10 09:36:50;;;;;;;;;;;23.00;45.50;;;;;;467387;254;1602;-39
2022/05/10 09:38:52;;;;;;;;;;;23.00;45.40;;;;;;467575;254;2212;-38
2022/05/10 09:40:54;;;;;;;;;;;23.00;45.40;;;;;;467364;254;1225;-39
2022/05/10 09:42:54;;;;;;;;;;;23.00;45.40;;;;;;467116;254;2306;-38
2022/05/10 09:44:56;;;;;;;;;;;23.00;45.40;;;;;;466975;254;1198;-39
2022/05/10 09:46:57;;;;;;;;;;;22.90;45.50;;;;;;467067;254;1121;-36
2022/05/10 09:48:58;;;;;;;;;;;23.00;45.50;;;;;;467121;254;1109;-38
2022/05/10 09:50:59;;;;;;;;;;;23.00;45.50;;;;;;466583;254;1391;-38
2022/05/10 09:53:01;;;;;;;;;;;22.90;45.50;;;;;;466936;254;1181;-39
2022/05/10 09:55:03;;;;;;;;;;;23.00;45.60;;;;;;466812;254;1281;-39
2022/05/10 09:57:04;;;;;;;;;;;23.00;45.60;;;;;;467022;255;1217;-39
2022/05/10 09:59:05;;;;;;;;;;;23.00;45.50;;;;;;467189;254;2205;-39
2022/05/10 10:01:06;;;;;;;;;;;23.00;45.50;;;;;;466772;254;1166;-39
2022/05/10 10:03:08;;;;;;;;;;;23.00;45.50;;;;;;466935;254;1233;-39
2022/05/10 10:05:09;;;;;;;;;;;22.90;45.50;;;;;;466861;254;1447;-39
2022/05/10 10:07:13;;;;;;;;;;;23.00;45.50;;;;;;466823;254;1217;-39
2022/05/10 10:09:12;;;;;;;;;;;22.90;45.40;;;;;;466605;255;2337;-39
2022/05/10 10:11:13;;;;;;;;;;;23.00;45.40;;;;;;466695;254;1255;-39
2022/05/10 10:13:15;;;;;;;;;;;23.00;45.40;;;;;;466740;254;1220;-39
2022/05/10 10:15:16;;;;;;;;;;;23.00;45.50;;;;;;466819;254;1347;-39
2022/05/10 10:17:18;;;;;;;;;;;23.00;45.40;;;;;;466684;254;1235;-39
2022/05/10 10:19:19;;;;;;;;;;;23.00;45.50;;;;;;466557;254;2153;-39
2022/05/10 10:21:20;;;;;;;;;;;23.10;45.40;;;;;;466473;254;1246;-39
2022/05/10 10:23:22;;;;;;;;;;;23.10;45.30;;;;;;466801;255;1145;-39
2022/05/10 10:25:23;;;;;;;;;;;23.10;45.20;;;;;;466876;254;1326;-39
2022/05/10 10:27:24;;;;;;;;;;;23.10;45.20;;;;;;466899;254;1222;-39
2022/05/10 10:29:25;;;;;;;;;;;23.10;45.20;;;;;;466877;254;1272;-39
2022/05/10 10:31:27;;;;;;;;;;;23.10;45.20;;;;;;466895;254;1260;-39
2022/05/10 10:33:29;;;;;;;;;;;23.10;45.30;;;;;;466856;254;1164;-39
2022/05/10 10:35:29;;;;;;;;;;;23.10;45.20;;;;;;466714;254;2184;-39
2022/05/10 10:37:32;;;;;;;;;;;23.10;45.30;;;;;;467035;254;1258;-38
2022/05/10 10:39:32;;;;;;;;;;;23.10;45.30;;;;;;467201;254;2374;-39
2022/05/10 10:41:33;;;;;;;;;;;23.10;45.20;;;;;;466727;254;1323;-39
2022/05/10 10:43:35;;;;;;;;;;;23.10;45.20;;;;;;466581;254;1306;-39
2022/05/10 10:45:36;;;;;;;;;;;23.10;45.10;;;;;;466729;254;1320;-39
2022/05/10 10:47:38;;;;;;;;;;;23.10;45.10;;;;;;466988;254;1259;-39
2022/05/10 10:49:39;;;;;;;;;;;23.20;45.10;;;;;;466762;254;2343;-39
2022/05/10 10:51:41;;;;;;;;;;;23.20;45.10;;;;;;466660;254;1317;-39
2022/05/10 10:53:42;;;;;;;;;;;23.20;45.00;;;;;;466735;253;1303;-39
2022/05/10 10:55:43;;;;;;;;;;;23.20;45.10;;;;;;466681;254;1852;-39
2022/05/10 10:57:45;;;;;;;;;;;23.20;45.00;;;;;;466615;254;1243;-39
2022/05/10 10:59:48;;;;;;;;;;;23.20;45.10;;;;;;466508;254;2219;-39
2022/05/10 11:01:47;;;;;;;;;;;23.20;45.00;;;;;;466369;254;1407;-39
2022/05/10 11:03:49;;;;;;;;;;;23.20;45.10;;;;;;466674;254;1268;-39
2022/05/10 11:05:51;;;;;;;;;;;23.20;45.10;;;;;;466687;254;1265;-39
2022/05/10 11:07:51;;;;;;;;;;;23.20;45.10;;;;;;467187;254;1922;-39
2022/05/10 11:09:53;;;;;;;;;;;23.20;45.10;;;;;;467008;254;1129;-39
2022/05/10 11:11:54;;;;;;;;;;;23.20;45.10;;;;;;466700;254;1306;-39
2022/05/10 11:13:55;;;;;;;;;;;23.20;45.00;;;;;;466579;254;1277;-39
2022/05/10 11:15:57;;;;;;;;;;;23.10;45.00;;;;;;466595;254;1234;-39
2022/05/10 11:17:58;;;;;;;;;;;23.10;45.10;;;;;;466691;254;1244;-39
2022/05/10 11:19:59;;;;;;;;;;;23.10;45.10;;;;;;466726;254;2130;-39
2022/05/10 11:22:01;;;;;;;;;;;23.10;45.00;;;;;;467143;254;1336;-39
2022/05/10 11:24:02;;;;;;;;;;;23.10;45.20;;;;;;467265;253;1105;-39
2022/05/10 11:26:03;;;;;;;;;;;23.10;45.20;;;;;;466878;254;1227;-39
2022/05/10 11:28:05;;;;;;;;;;;23.10;45.20;;;;;;467191;254;1197;-39
2022/05/10 11:30:06;;;;;;;;;;;23.10;45.20;;;;;;467195;254;1336;-39
2022/05/10 11:32:07;;;;;;;;;;;23.10;45.20;;;;;;467555;254;1084;-39
2022/05/10 11:34:09;;;;;;;;;;;23.10;45.20;;;;;;467511;254;1065;-39
2022/05/10 11:36:10;;;;;;;;;;;23.10;45.10;;;;;;467042;254;1188;-39
2022/05/10 11:38:11;;;;;;;;;;;23.10;45.10;;;;;;467117;254;1123;-38
2022/05/10 11:40:12;;;;;;;;;;;23.10;45.00;;;;;;467106;254;2197;-39
2022/05/10 11:42:14;;;;;;;;;;;23.10;45.20;;;;;;467308;254;1273;-38
2022/05/10 11:44:15;;;;;;;;;;;23.10;45.20;;;;;;467118;254;1187;-39
2022/05/10 11:46:16;;;;;;;;;;;23.00;45.10;;;;;;466566;255;1256;-39
2022/05/10 11:48:18;;;;;;;;;;;23.10;45.10;;;;;;466773;254;1307;-39
2022/05/10 11:50:19;;;;;;;;;;;23.10;45.20;;;;;;466696;254;1285;-39
2022/05/10 11:52:20;;;;;;;;;;;23.10;45.10;;;;;;466734;254;1250;-39
2022/05/10 11:54:22;;;;;;;;;;;23.10;45.00;;;;;;466740;255;1530;-39
2022/05/10 11:56:23;;;;;;;;;;;23.10;45.10;;;;;;466730;254;1401;-39
2022/05/10 11:58:24;;;;;;;;;;;23.10;45.00;;;;;;467053;254;1447;-39
2022/05/10 12:00:26;;;;;;;;;;;23.10;45.00;;;;;;467487;254;2196;-39
2022/05/10 12:02:27;;;;;;;;;;;23.20;45.00;;;;;;467469;254;1198;-39
2022/05/10 12:04:28;;;;;;;;;;;23.20;44.90;;;;;;467013;254;1244;-39
2022/05/10 12:06:31;;;;;;;;;;;23.20;44.80;;;;;;466855;254;1271;-39